Time;durP1;ratioP1;P1;durP2;ratioP2;P2;SDS_P1;SDS_P2;PMS_P1;PMS_P2;Temp;Humidity;BMP_temperature;BMP_pressure;BME280_temperature;BME280_humidity;BME280_pressure;Samples;Min_cycle;Max_cycle;Signal;HPM_P1;HPM_P2
2023/03/29 00:00:14;;;;;;;0.50;0.50;;;;;;;0.82;84.39;100475.69;5045505;28;20025;-66
2023/03/29 00:02:41;;;;;;;0.50;0.50;;;;;;;0.94;83.94;100465.88;5045131;28;20022;-67
2023/03/29 00:05:08;;;;;;;0.50;0.50;;;;;;;1.11;83.97;100468.09;5045395;28;20032;-68
2023/03/29 00:07:34;;;;;;;0.50;0.50;;;;;;;1.22;83.83;100450.53;5045026;28;20036;-68
2023/03/29 00:10:01;;;;;;;0.60;0.60;;;;;;;1.34;83.49;100456.00;5043710;28;20025;-69
2023/03/29 00:12:27;;;;;;;0.50;0.50;;;;;;;1.41;83.48;100456.19;5044961;28;20029;-68
2023/03/29 00:14:53;;;;;;;0.50;0.50;;;;;;;1.51;83.56;100450.53;5045358;28;20063;-68
2023/03/29 00:17:18;;;;;;;0.50;0.50;;;;;;;1.57;83.78;100439.59;5044748;28;20045;-68
2023/03/29 00:19:45;;;;;;;0.50;0.50;;;;;;;1.61;83.67;100428.66;5044898;28;20047;-69
2023/03/29 00:22:11;;;;;;;0.50;0.50;;;;;;;1.70;83.43;100444.28;5045037;28;20021;-69
2023/03/29 00:24:36;;;;;;;0.50;0.50;;;;;;;1.83;82.47;100435.25;5044785;28;20037;-68
2023/03/29 00:27:02;;;;;;;0.50;0.50;;;;;;;1.66;81.78;100432.19;5044659;28;20036;-68
2023/03/29 00:29:27;;;;;;;0.50;0.50;;;;;;;1.40;82.50;100424.66;5044985;28;20386;-67
2023/03/29 00:31:54;;;;;;;0.50;0.50;;;;;;;1.40;82.53;100424.66;5043501;28;20029;-68
2023/03/29 00:34:21;;;;;;;0.50;0.50;;;;;;;1.29;82.85;100433.69;5044854;28;20048;-69
2023/03/29 00:36:51;;;;;;;0.50;0.50;;;;;;;1.16;83.15;100415.41;5044696;28;20029;-69
2023/03/29 00:39:20;;;;;;;0.50;0.50;;;;;;;1.20;83.60;100419.78;5044596;28;20029;-70
2023/03/29 00:41:47;;;;;;;0.70;0.70;;;;;;;1.23;83.86;100421.59;5043314;28;20039;-70
2023/03/29 00:44:55;;;;;;;0.50;0.50;;;;;;;1.25;83.93;100417.38;5044649;28;20025;-70
2023/03/29 00:47:28;;;;;;;0.50;0.50;;;;;;;1.20;83.94;100413.78;5046567;28;20025;-69
2023/03/29 00:49:56;;;;;;;0.50;0.50;;;;;;;1.11;84.09;100406.72;5047348;28;20036;-68
2023/03/29 00:52:23;;;;;;;0.55;0.55;;;;;;;1.21;84.09;100402.75;5048903;28;20021;-70
2023/03/29 00:54:53;;;;;;;0.50;0.50;;;;;;;1.13;84.29;100412.78;5048444;28;20021;-69
2023/03/29 00:57:21;;;;;;;0.50;0.50;;;;;;;1.11;84.47;100411.84;5048675;28;20076;-69
2023/03/29 00:59:48;;;;;;;0.60;0.60;;;;;;;1.04;84.96;100402.25;5048702;28;20022;-69
2023/03/29 01:02:16;;;;;;;0.50;0.50;;;;;;;1.03;85.24;100403.94;5048447;28;20021;-67
2023/03/29 01:04:48;;;;;;;0.50;0.50;;;;;;;1.11;85.24;100393.94;5048376;28;20084;-69
2023/03/29 01:07:36;;;;;;;0.60;0.60;;;;;;;1.15;85.32;100398.31;5048426;28;20041;-68
2023/03/29 01:10:11;;;;;;;0.50;0.50;;;;;;;1.06;85.59;100381.03;5048402;28;20415;-67
2023/03/29 01:12:45;;;;;;;0.50;0.50;;;;;;;1.14;85.65;100376.13;5048167;28;20056;-67
2023/03/29 01:15:13;;;;;;;0.50;0.50;;;;;;;1.14;85.95;100375.25;5048250;28;20026;-67
2023/03/29 01:17:42;;;;;;;16.00;2.65;;;;;;;1.20;86.20;100370.31;5046630;28;20109;-66
2023/03/29 01:20:18;;;;;;;0.50;0.50;;;;;;;1.33;86.47;100371.56;5048340;28;20027;-67
2023/03/29 01:23:01;;;;;;;0.50;0.50;;;;;;;1.46;86.86;100367.66;5048126;28;20108;-67
2023/03/29 01:25:42;;;;;;;0.60;0.60;;;;;;;1.60;86.98;100365.47;5047969;28;20030;-67
2023/03/29 01:28:12;;;;;;;0.50;0.50;;;;;;;1.75;86.74;100351.38;5048033;28;20087;-66
2023/03/29 01:30:47;;;;;;;0.45;0.45;;;;;;;1.89;86.87;100352.59;5047836;28;20086;-66
2023/03/29 01:33:20;;;;;;;0.50;0.50;;;;;;;1.94;86.28;100350.16;5047816;28;20030;-66
2023/03/29 01:36:15;;;;;;;0.50;0.50;;;;;;;2.03;85.51;100349.56;5047913;28;20021;-67
2023/03/29 01:38:58;;;;;;;0.50;0.50;;;;;;;2.06;85.22;100334.25;5047410;28;20056;-65
2023/03/29 01:41:36;;;;;;;0.50;0.50;;;;;;;2.14;84.98;100335.31;5029860;28;20033;-65
2023/03/29 01:44:08;;;;;;;0.50;0.50;;;;;;;2.14;84.95;100325.06;5047682;28;20025;-66
2023/03/29 01:46:37;;;;;;;;;;;;;;;2.27;84.80;100328.78;5048225;28;20025;-67
2023/03/29 01:49:12;;;;;;;0.50;0.50;;;;;;;2.20;84.54;100327.81;5046114;28;19952;-67
2023/03/29 01:52:05;;;;;;;0.50;0.50;;;;;;;2.22;84.76;100313.31;5047654;28;20033;-65
2023/03/29 01:54:35;;;;;;;0.50;0.50;;;;;;;2.21;84.70;100309.03;5047103;28;20466;-65
2023/03/29 01:57:04;;;;;;;0.50;0.50;;;;;;;2.19;84.54;100307.28;5046596;28;20021;-66
2023/03/29 01:59:33;;;;;;;0.50;0.50;;;;;;;2.22;84.62;100300.50;5045679;28;20112;-66
2023/03/29 02:02:03;;;;;;;0.50;0.50;;;;;;;2.16;84.27;100295.22;5047331;28;20025;-66
2023/03/29 02:04:36;;;;;;;0.50;0.50;;;;;;;2.13;84.29;100290.03;5047264;28;20438;-68
2023/03/29 02:07:06;;;;;;;0.60;0.60;;;;;;;2.16;84.49;100281.56;5045860;28;20520;-68
2023/03/29 02:09:34;;;;;;;0.50;0.50;;;;;;;2.15;84.36;100277.28;5047053;28;20423;-67
2023/03/29 02:12:01;;;;;;;0.50;0.50;;;;;;;2.11;84.27;100281.44;5047069;28;20021;-67
2023/03/29 02:14:29;;;;;;;0.50;0.50;;;;;;;2.07;84.35;100265.16;5047477;28;20029;-67
2023/03/29 02:16:55;;;;;;;0.50;0.50;;;;;;;2.10;84.45;100251.53;5046854;28;20053;-65
2023/03/29 02:19:23;;;;;;;0.50;0.50;;;;;;;2.13;84.31;100268.69;5046875;28;20026;-66
2023/03/29 02:22:02;;;;;;;0.50;0.50;;;;;;;2.14;84.39;100262.75;5045842;28;20022;-65
2023/03/29 02:24:31;;;;;;;0.60;0.60;;;;;;;2.13;84.54;100248.19;5047029;28;20544;-64
2023/03/29 02:26:57;;;;;;;0.50;0.50;;;;;;;2.18;84.58;100257.72;5046794;28;20033;-65
2023/03/29 02:29:23;;;;;;;0.50;0.50;;;;;;;2.20;84.75;100257.75;5046710;28;20060;-65
2023/03/29 02:32:03;;;;;;;0.50;0.50;;;;;;;2.16;84.82;100246.56;5046822;28;20029;-66
2023/03/29 02:34:36;;;;;;;0.50;0.50;;;;;;;2.19;85.03;100248.34;5045286;28;20017;-66
2023/03/29 02:37:07;;;;;;;0.50;0.50;;;;;;;2.20;85.22;100239.84;5046708;28;20077;-67
2023/03/29 02:39:33;;;;;;;0.50;0.50;;;;;;;2.18;85.37;100229.56;5046345;28;20770;-64
2023/03/29 02:42:01;;;;;;;0.50;0.50;;;;;;;2.23;85.33;100235.66;5046861;28;20045;-66
2023/03/29 02:44:30;;;;;;;0.50;0.50;;;;;;;2.26;85.52;100233.97;5046433;28;20363;-63
2023/03/29 02:47:02;;;;;;;0.50;0.50;;;;;;;2.22;85.47;100227.94;5046536;28;20029;-64
2023/03/29 02:49:27;;;;;;;;;;;;;;;2.25;85.47;100234.81;5045588;28;20517;-65
2023/03/29 02:51:56;;;;;;;0.50;0.50;;;;;;;2.16;85.71;100217.53;5046464;28;19952;-68
2023/03/29 02:54:24;;;;;;;0.50;0.50;;;;;;;2.11;85.79;100217.41;5046090;28;20029;-67
2023/03/29 02:57:05;;;;;;;0.50;0.50;;;;;;;2.03;86.14;100216.41;5046419;28;20021;-67
2023/03/29 02:59:32;;;;;;;1.73;1.60;;;;;;;2.04;86.31;100218.13;5046468;28;20436;-66
2023/03/29 03:01:58;;;;;;;0.50;0.50;;;;;;;1.95;86.70;100222.19;5046362;28;20029;-66
2023/03/29 03:04:24;;;;;;;0.50;0.50;;;;;;;1.92;87.10;100218.66;5046169;28;20037;-66
2023/03/29 03:06:49;;;;;;;0.60;0.60;;;;;;;1.87;87.49;100218.56;5046191;28;20494;-66
2023/03/29 03:09:15;;;;;;;0.50;0.50;;;;;;;1.87;87.64;100213.44;5045448;28;20037;-64
2023/03/29 03:11:41;;;;;;;0.50;0.50;;;;;;;1.87;87.78;100220.28;5045067;28;20021;-63
2023/03/29 03:14:06;;;;;;;0.50;0.50;;;;;;;1.84;87.82;100214.25;5046194;28;20043;-62
2023/03/29 03:16:32;;;;;;;0.50;0.50;;;;;;;1.81;88.12;100210.75;5045906;28;20042;-62
2023/03/29 03:18:59;;;;;;;0.60;0.60;;;;;;;1.78;88.28;100206.41;5044423;28;20081;-63
2023/03/29 03:21:27;;;;;;;0.50;0.50;;;;;;;1.72;88.59;100202.03;5045970;28;20085;-63
2023/03/29 03:23:53;;;;;;;0.50;0.50;;;;;;;1.69;89.12;100203.63;5045832;28;20286;-64
2023/03/29 03:26:19;;;;;;;0.60;0.60;;;;;;;1.68;89.51;100199.31;5045560;28;20025;-64
2023/03/29 03:28:47;;;;;;;0.50;0.50;;;;;;;1.66;89.55;100208.69;5044292;28;20017;-63
2023/03/29 03:31:12;;;;;;;0.80;0.80;;;;;;;1.65;89.87;100186.47;5045779;28;20056;-64
2023/03/29 03:33:39;;;;;;;0.55;0.55;;;;;;;1.68;90.15;100202.75;5045592;28;20473;-64
2023/03/29 03:36:10;;;;;;;0.50;0.50;;;;;;;1.69;90.13;100191.69;5045680;28;20045;-64
2023/03/29 03:38:37;;;;;;;0.50;0.50;;;;;;;1.67;90.73;100180.56;5045501;28;20504;-64
2023/03/29 03:41:04;;;;;;;0.60;0.60;;;;;;;1.70;90.62;100188.31;5045325;28;20041;-65
2023/03/29 03:43:30;;;;;;;0.80;0.80;;;;;;;1.70;90.35;100190.00;5045548;28;20025;-64
2023/03/29 03:45:56;;;;;;;0.50;0.50;;;;;;;1.70;90.18;100178.09;5045621;28;20028;-64
2023/03/29 03:48:22;;;;;;;0.50;0.50;;;;;;;1.72;90.09;100181.56;5045516;28;20037;-63
2023/03/29 03:50:52;;;;;;;0.55;0.55;;;;;;;1.74;90.06;100176.47;5045499;28;20065;-64
2023/03/29 03:53:18;;;;;;;0.50;0.50;;;;;;;1.75;90.08;100177.31;5045441;28;20017;-64
2023/03/29 03:55:52;;;;;;;0.50;0.50;;;;;;;1.78;90.10;100173.13;5045081;28;20025;-64
2023/03/29 03:58:18;;;;;;;0.82;0.82;;;;;;;1.80;89.91;100170.63;5045202;28;20453;-62
2023/03/29 04:00:46;;;;;;;0.50;0.50;;;;;;;1.83;89.99;100180.94;5045257;28;20049;-64
2023/03/29 04:03:12;;;;;;;0.50;0.50;;;;;;;1.83;90.19;100157.88;5043813;28;20029;-63
2023/03/29 04:05:43;;;;;;;0.50;0.50;;;;;;;1.85;90.02;100171.59;5043779;28;20057;-65
2023/03/29 04:08:09;;;;;;;0.50;0.50;;;;;;;1.82;90.02;100162.13;5044870;28;20025;-65
2023/03/29 04:10:35;;;;;;;0.50;0.50;;;;;;;1.83;90.00;100163.88;5045000;28;20040;-64
2023/03/29 04:13:01;;;;;;;0.50;0.50;;;;;;;1.80;90.06;100158.69;5045101;28;20029;-64
2023/03/29 04:15:28;;;;;;;0.50;0.50;;;;;;;1.78;90.15;100151.78;5045125;28;20021;-64
2023/03/29 04:17:55;;;;;;;0.50;0.50;;;;;;;1.79;90.11;100156.09;5043410;28;20057;-63
2023/03/29 04:20:21;;;;;;;0.40;0.40;;;;;;;1.78;90.25;100160.34;5044165;28;20022;-64
2023/03/29 04:22:47;;;;;;;0.50;0.50;;;;;;;1.78;90.38;100154.34;5045040;28;20100;-64
2023/03/29 04:25:12;;;;;;;0.50;0.50;;;;;;;1.79;90.58;100153.53;5044605;28;20033;-64
2023/03/29 04:27:39;;;;;;;0.50;0.50;;;;;;;1.82;90.67;100151.06;5044788;28;20049;-64
2023/03/29 04:30:06;;;;;;;0.50;0.50;;;;;;;1.80;90.59;100137.34;5044652;28;20094;-64
2023/03/29 04:32:31;;;;;;;0.50;0.50;;;;;;;1.70;90.48;100120.91;5045090;28;20021;-61
2023/03/29 04:34:57;;;;;;;0.50;0.50;;;;;;;1.77;90.59;100132.16;5044821;28;20025;-63
2023/03/29 04:37:23;;;;;;;0.50;0.50;;;;;;;1.78;90.74;100133.88;5044833;28;20022;-63
2023/03/29 04:39:49;;;;;;;0.50;0.50;;;;;;;1.78;90.82;100142.44;5044013;28;20029;-62
2023/03/29 04:42:15;;;;;;;0.50;0.50;;;;;;;1.79;91.03;100140.75;5044407;28;20026;-63
2023/03/29 04:44:42;;;;;;;0.50;0.50;;;;;;;1.80;91.01;100132.22;5044277;28;20025;-63
2023/03/29 04:47:10;;;;;;;0.50;0.50;;;;;;;1.85;91.21;100136.59;5044817;28;20025;-63
2023/03/29 04:49:36;;;;;;;0.50;0.50;;;;;;;1.84;91.44;100119.53;5044531;28;20021;-63
2023/03/29 04:52:01;;;;;;;0.50;0.50;;;;;;;1.92;91.50;100140.19;5044745;28;20044;-62
2023/03/29 04:54:27;;;;;;;0.50;0.50;;;;;;;1.95;91.54;100122.31;5044403;28;20414;-63
2023/03/29 04:56:52;;;;;;;0.50;0.50;;;;;;;1.95;91.50;100112.09;5044756;28;20082;-62
2023/03/29 04:59:18;;;;;;;0.50;0.50;;;;;;;1.96;91.46;100126.63;5043672;28;20173;-62
2023/03/29 05:01:43;;;;;;;0.50;0.50;;;;;;;1.94;91.54;100129.97;5044480;28;20458;-63
2023/03/29 05:04:09;;;;;;;0.50;0.50;;;;;;;1.94;91.76;100125.72;5043615;28;20026;-62
2023/03/29 05:06:35;;;;;;;0.50;0.50;;;;;;;1.96;91.82;100118.94;5044692;28;20041;-62
2023/03/29 05:09:01;;;;;;;0.50;0.50;;;;;;;2.00;91.89;100119.03;5044595;28;20026;-61
2023/03/29 05:11:26;;;;;;;0.50;0.50;;;;;;;2.02;92.03;100117.34;5044405;28;20105;-61
2023/03/29 05:13:54;;;;;;;0.60;0.60;;;;;;;2.05;92.06;100119.97;5044469;28;20022;-62
2023/03/29 05:16:19;;;;;;;0.50;0.50;;;;;;;2.05;92.17;100113.16;5043103;28;20031;-62
2023/03/29 05:18:45;;;;;;;0.50;0.50;;;;;;;2.06;92.16;100108.91;5044539;28;20042;-62
2023/03/29 05:21:10;;;;;;;0.50;0.50;;;;;;;2.06;92.10;100111.47;5044380;28;20514;-62
2023/03/29 05:23:36;;;;;;;0.60;0.60;;;;;;;2.07;92.22;100102.94;5044353;28;20026;-62
2023/03/29 05:26:02;;;;;;;0.50;0.50;;;;;;;2.08;92.36;100104.66;5044506;28;20160;-63
2023/03/29 05:28:28;;;;;;;0.50;0.50;;;;;;;2.08;92.71;100107.22;5042579;28;20045;-62
2023/03/29 05:31:02;;;;;;;0.50;0.50;;;;;;;2.08;92.49;100094.41;5044619;28;20108;-62
2023/03/29 05:33:29;;;;;;;0.50;0.50;;;;;;;2.10;92.60;100079.97;5045201;28;20085;-62
2023/03/29 05:36:12;;;;;;;0.50;0.50;;;;;;;2.09;92.82;100097.00;5047978;28;20021;-62
2023/03/29 05:38:38;;;;;;;0.50;0.50;;;;;;;2.12;92.72;100097.91;5047802;28;20021;-63
2023/03/29 05:41:05;;;;;;;0.50;0.50;;;;;;;2.06;92.99;100089.25;5047471;28;20489;-62
2023/03/29 05:43:31;;;;;;;0.50;0.50;;;;;;;2.16;93.29;100089.47;5045342;28;20025;-62
2023/03/29 05:45:56;;;;;;;0.50;0.50;;;;;;;2.22;93.08;100097.28;5047855;28;20112;-63
2023/03/29 05:48:22;;;;;;;0.50;0.50;;;;;;;2.26;93.19;100096.50;5047426;28;20036;-63
2023/03/29 05:50:53;;;;;;;0.50;0.50;;;;;;;2.26;93.30;100093.94;5047775;28;20032;-62
2023/03/29 05:53:20;;;;;;;0.50;0.50;;;;;;;2.25;93.23;100093.91;5047059;28;20053;-63
2023/03/29 05:55:46;;;;;;;0.50;0.50;;;;;;;2.27;93.37;100097.38;5047681;28;20025;-62
2023/03/29 05:58:12;;;;;;;0.50;0.50;;;;;;;2.31;93.46;100094.03;5047038;28;20505;-63
2023/03/29 06:00:39;;;;;;;0.40;0.40;;;;;;;2.32;93.25;100090.63;5047186;28;20022;-63
2023/03/29 06:03:09;;;;;;;0.50;0.50;;;;;;;2.36;93.63;100092.44;5047109;28;20101;-62
2023/03/29 06:05:35;;;;;;;0.50;0.50;;;;;;;2.40;93.69;100098.47;5047269;28;20022;-63
2023/03/29 06:08:02;;;;;;;0.50;0.50;;;;;;;2.39;93.73;100089.94;5047373;28;20048;-63
2023/03/29 06:10:27;;;;;;;0.50;0.50;;;;;;;2.42;93.78;100096.81;5045827;28;20026;-63
2023/03/29 06:12:53;;;;;;;0.50;0.50;;;;;;;2.43;93.86;100083.19;5047009;28;20025;-63
2023/03/29 06:15:18;;;;;;;0.50;0.50;;;;;;;2.37;93.83;100071.09;5047223;28;20022;-62
2023/03/29 06:17:44;;;;;;;0.50;0.50;;;;;;;2.41;94.01;100088.25;5046946;28;20053;-62
2023/03/29 06:20:10;;;;;;;0.50;0.50;;;;;;;2.40;94.02;100076.28;5047402;28;20021;-63
2023/03/29 06:22:37;;;;;;;0.50;0.50;;;;;;;2.39;94.00;100078.81;5047163;28;20032;-62
2023/03/29 06:25:04;;;;;;;0.50;0.50;;;;;;;2.39;94.33;100078.81;5047234;28;20057;-62
2023/03/29 06:27:31;;;;;;;0.50;0.50;;;;;;;2.40;94.34;100083.09;5047004;28;20025;-62
2023/03/29 06:29:58;;;;;;;0.50;0.50;;;;;;;2.41;94.35;100079.72;5047107;28;20021;-62
2023/03/29 06:32:24;;;;;;;0.50;0.50;;;;;;;2.39;94.50;100077.13;5047125;28;20025;-62
2023/03/29 06:34:49;;;;;;;0.50;0.50;;;;;;;2.41;94.53;100079.72;5046920;28;20056;-62
2023/03/29 06:37:15;;;;;;;0.50;0.50;;;;;;;2.41;94.56;100079.72;5045449;28;20021;-62
2023/03/29 06:39:40;;;;;;;0.50;0.50;;;;;;;2.42;94.72;100076.31;5046025;28;20017;-62
2023/03/29 06:42:05;;;;;;;0.50;0.50;;;;;;;2.43;94.71;100073.78;5047141;28;20028;-62
2023/03/29 06:44:31;;;;;;;0.50;0.50;;;;;;;2.45;94.92;100061.88;5046091;28;20032;-63
2023/03/29 06:46:56;;;;;;;0.50;0.50;;;;;;;2.46;95.05;100073.00;5046667;28;20079;-62
2023/03/29 06:49:22;;;;;;;0.50;0.50;;;;;;;2.46;95.09;100058.47;5046565;28;20417;-62
2023/03/29 06:51:47;;;;;;;0.50;0.50;;;;;;;2.45;95.09;100059.31;5046794;28;20084;-63
2023/03/29 06:54:13;;;;;;;0.50;0.50;;;;;;;2.47;95.30;100065.34;5046592;28;20057;-62
2023/03/29 06:56:39;;;;;;;0.50;0.50;;;;;;;2.45;95.09;100072.13;5046550;28;20071;-62
2023/03/29 06:59:05;;;;;;;0.50;0.50;;;;;;;2.47;95.37;100067.91;5046184;28;20478;-62
2023/03/29 07:01:32;;;;;;;0.50;0.50;;;;;;;2.48;95.44;100066.19;5045191;28;20040;-62
2023/03/29 07:03:59;;;;;;;0.50;0.50;;;;;;;2.48;95.41;100069.63;5045212;28;20505;-62
2023/03/29 07:06:25;;;;;;;0.50;0.50;;;;;;;2.52;95.62;100068.00;5046374;28;20432;-62
2023/03/29 07:08:51;;;;;;;0.50;0.50;;;;;;;2.55;95.72;100067.19;5046436;28;20090;-63
2023/03/29 07:11:17;;;;;;;0.50;0.50;;;;;;;2.57;95.70;100065.50;5046329;28;20025;-63
2023/03/29 07:13:43;;;;;;;0.50;0.50;;;;;;;2.56;95.74;100074.03;5046321;28;20049;-63
2023/03/29 07:16:13;;;;;;;0.50;0.50;;;;;;;2.56;95.95;100077.47;5046425;28;20449;-64
2023/03/29 07:18:40;;;;;;;0.40;0.40;;;;;;;2.55;95.80;100077.44;5043044;28;20098;-63
2023/03/29 07:21:07;;;;;;;0.50;0.50;;;;;;;2.56;95.85;100077.47;5046230;28;20022;-63
2023/03/29 07:23:33;;;;;;;0.50;0.50;;;;;;;2.57;96.02;100073.22;5044803;28;20085;-63
2023/03/29 07:25:58;;;;;;;0.50;0.50;;;;;;;2.57;95.89;100083.47;5044893;28;20025;-63
2023/03/29 07:28:23;;;;;;;0.50;0.50;;;;;;;2.57;96.05;100078.34;5045770;28;20087;-63
2023/03/29 07:30:49;;;;;;;0.50;0.50;;;;;;;2.59;96.23;100074.06;5045725;28;20208;-63
2023/03/29 07:33:15;;;;;;;0.50;0.50;;;;;;;2.60;96.16;100068.13;5046211;28;20047;-63
2023/03/29 07:35:42;;;;;;;0.50;0.50;;;;;;;2.60;96.27;100068.97;5045796;28;20052;-63
2023/03/29 07:38:08;;;;;;;0.50;0.50;;;;;;;2.60;96.31;100078.38;5045846;28;20021;-63
2023/03/29 07:40:34;;;;;;;0.50;0.50;;;;;;;2.60;96.17;100075.81;5045538;28;20035;-63
2023/03/29 07:43:00;;;;;;;0.50;0.50;;;;;;;2.60;96.33;100073.25;5045675;28;20025;-63
2023/03/29 07:45:27;;;;;;;0.60;0.60;;;;;;;2.60;96.46;100080.94;5045733;28;20025;-63
2023/03/29 07:47:57;;;;;;;0.50;0.50;;;;;;;2.60;96.42;100078.38;5045780;28;20033;-63
2023/03/29 07:50:23;;;;;;;0.40;0.40;;;;;;;2.60;96.53;100078.38;5045499;28;20021;-63
2023/03/29 07:52:48;;;;;;;0.50;0.50;;;;;;;2.66;96.74;100082.75;5045579;28;20052;-63
2023/03/29 07:55:14;;;;;;;0.50;0.50;;;;;;;2.68;96.75;100073.41;5044703;28;20021;-63
2023/03/29 07:57:40;;;;;;;0.50;0.50;;;;;;;2.69;96.84;100067.44;5045506;28;20027;-62
2023/03/29 08:00:18;;;;;;;0.50;0.50;;;;;;;2.71;96.89;100078.59;5045296;28;20041;-63
2023/03/29 08:02:45;;;;;;;0.50;0.50;;;;;;;2.76;97.02;100076.97;5045385;28;20088;-63
2023/03/29 08:05:12;;;;;;;0.43;0.43;;;;;;;2.79;97.11;100071.91;5044639;28;20093;-63
2023/03/29 08:07:40;;;;;;;0.50;0.50;;;;;;;2.81;97.09;100074.50;5045206;28;20025;-63
2023/03/29 08:10:12;;;;;;;0.50;0.50;;;;;;;2.81;97.11;100070.22;5045122;28;20061;-63
2023/03/29 08:12:38;;;;;;;0.50;0.50;;;;;;;2.80;97.09;100076.19;5043021;28;20482;-63
2023/03/29 08:15:04;;;;;;;0.50;0.50;;;;;;;2.80;97.04;100062.50;5043400;28;20097;-63
2023/03/29 08:17:31;;;;;;;0.47;0.47;;;;;;;2.82;97.13;100065.97;5044871;28;20128;-63
2023/03/29 08:19:56;;;;;;;0.50;0.50;;;;;;;2.85;97.35;100066.00;5045112;28;20029;-63
2023/03/29 08:22:22;;;;;;;0.50;0.50;;;;;;;2.87;97.30;100061.78;5045277;28;20021;-63
2023/03/29 08:24:47;;;;;;;0.50;0.50;;;;;;;2.90;97.43;100066.97;5045056;28;20026;-65
2023/03/29 08:27:13;;;;;;;0.50;0.50;;;;;;;2.91;97.37;100060.13;5045055;28;20557;-63
2023/03/29 08:29:38;;;;;;;0.50;0.50;;;;;;;2.90;97.40;100059.28;5045265;28;20048;-62
2023/03/29 08:32:04;;;;;;;0.50;0.50;;;;;;;2.91;97.42;100061.00;5045117;28;20488;-64
2023/03/29 08:34:30;;;;;;;0.50;0.50;;;;;;;2.90;97.49;100054.16;5045145;28;20354;-63
2023/03/29 08:36:57;;;;;;;0.50;0.50;;;;;;;2.95;97.55;100057.66;5044091;28;20033;-63
2023/03/29 08:39:23;;;;;;;0.45;0.45;;;;;;;2.95;97.46;100049.97;5044808;28;20025;-63
2023/03/29 08:41:48;;;;;;;0.45;0.45;;;;;;;3.03;97.72;100050.09;5043670;28;20028;-62
2023/03/29 08:44:47;;;;;;;0.50;0.50;;;;;;;3.07;97.73;100048.41;5042383;28;20377;-62
2023/03/29 08:47:48;;;;;;;0.50;0.50;;;;;;;3.11;97.97;100039.97;5044815;28;20206;-63
2023/03/29 08:50:14;;;;;;;0.60;0.60;;;;;;;3.15;98.07;100041.72;5043773;28;20108;-63
2023/03/29 08:52:45;;;;;;;0.50;0.50;;;;;;;3.18;97.87;100038.34;5043404;28;20448;-63
2023/03/29 08:55:23;;;;;;;0.50;0.50;;;;;;;3.21;97.97;100041.81;5045032;28;20448;-63
2023/03/29 08:57:50;;;;;;;0.40;0.40;;;;;;;3.27;98.07;100053.03;5044879;28;20049;-63
2023/03/29 09:00:35;;;;;;;0.40;0.40;;;;;;;3.28;98.03;100047.91;5043417;28;20071;-64
2023/03/29 09:03:02;;;;;;;0.40;0.40;;;;;;;3.32;98.02;100046.28;5044770;28;20030;-63
2023/03/29 09:05:34;;;;;;;0.45;0.45;;;;;;;3.38;98.07;100045.50;5044955;28;20438;-62
2023/03/29 09:08:00;;;;;;;0.50;0.50;;;;;;;3.43;98.26;100051.56;5047504;28;20030;-63
2023/03/29 09:10:55;;;;;;;0.50;0.50;;;;;;;3.46;98.21;100039.66;5048269;28;20033;-63
2023/03/29 09:13:45;;;;;;;0.50;0.50;;;;;;;3.47;98.17;100049.06;5047608;28;20069;-63
2023/03/29 09:16:42;;;;;;;0.40;0.40;;;;;;;3.50;98.10;100049.97;5048549;28;20029;-63
2023/03/29 09:19:44;;;;;;;0.50;0.50;;;;;;;3.55;98.13;100043.16;5048375;28;20018;-63
2023/03/29 09:22:21;;;;;;;0.50;0.50;;;;;;;3.59;98.32;100035.53;5048616;28;20079;-64
2023/03/29 09:24:58;;;;;;;0.47;0.47;;;;;;;3.67;98.36;100042.50;5048090;28;20029;-63
2023/03/29 09:27:37;;;;;;;0.50;0.50;;;;;;;3.68;98.38;100039.94;5048149;28;20535;-63
2023/03/29 09:30:26;;;;;;;0.50;0.50;;;;;;;3.74;98.26;100038.31;5048114;28;20025;-63
2023/03/29 09:32:56;;;;;;;0.50;0.50;;;;;;;3.78;98.43;100030.66;5048225;28;20164;-63
2023/03/29 09:35:25;;;;;;;0.50;0.50;;;;;;;3.85;98.60;100039.28;5044327;28;20472;-63
2023/03/29 09:37:52;;;;;;;0.50;0.50;;;;;;;3.87;98.26;100036.75;5047727;28;20525;-63
2023/03/29 09:40:27;;;;;;;0.40;0.40;;;;;;;3.87;98.24;100031.59;5047536;28;20033;-63
2023/03/29 09:42:54;;;;;;;0.50;0.50;;;;;;;3.89;98.18;100027.38;5048011;28;20108;-63
2023/03/29 09:45:20;;;;;;;0.50;0.50;;;;;;;3.91;98.33;100035.97;5046297;28;20047;-63
2023/03/29 09:47:57;;;;;;;0.50;0.50;;;;;;;3.86;98.01;100041.03;5047883;28;20036;-63
2023/03/29 09:50:29;;;;;;;0.40;0.40;;;;;;;3.86;98.04;100042.75;5047760;28;20036;-63
2023/03/29 09:52:55;;;;;;;0.57;0.57;;;;;;;3.88;98.20;100041.94;5047794;28;20022;-63
2023/03/29 09:55:26;;;;;;;0.47;0.47;;;;;;;3.88;98.23;100051.34;5047630;28;20036;-62
2023/03/29 09:57:52;;;;;;;0.40;0.40;;;;;;;3.90;98.39;100050.50;5047809;28;20022;-62
2023/03/29 10:00:18;;;;;;;0.50;0.50;;;;;;;3.93;98.38;100045.41;5047681;28;20047;-62
2023/03/29 10:02:55;;;;;;;0.50;0.50;;;;;;;3.92;98.27;100046.25;5047653;28;20028;-63
2023/03/29 10:05:24;;;;;;;0.40;0.40;;;;;;;3.94;97.92;100041.13;5047671;28;20187;-63
2023/03/29 10:07:53;;;;;;;0.50;0.50;;;;;;;3.92;98.32;100043.69;5047395;28;20056;-62
2023/03/29 10:10:26;;;;;;;0.50;0.50;;;;;;;3.93;98.14;100050.53;5047646;28;20092;-62
2023/03/29 10:12:58;;;;;;;0.50;0.50;;;;;;;3.97;98.61;100047.19;5047570;28;20025;-64
2023/03/29 10:15:25;;;;;;;;;;;;;;;4.03;98.36;100050.66;5047852;28;20116;-62
2023/03/29 10:17:58;;;;;;;0.40;0.40;;;;;;;3.97;98.18;100047.19;5046749;28;19921;-63
2023/03/29 10:20:24;;;;;;;0.45;0.45;;;;;;;4.00;98.49;100037.78;5046833;28;20037;-62
2023/03/29 10:22:58;;;;;;;0.50;0.50;;;;;;;4.00;98.50;100035.19;5047498;28;20025;-64
2023/03/29 10:25:27;;;;;;;0.40;0.40;;;;;;;4.02;98.45;100038.66;5047240;28;20029;-63
2023/03/29 10:28:02;;;;;;;0.50;0.50;;;;;;;4.04;98.70;100039.56;5046922;28;20056;-61
2023/03/29 10:30:34;;;;;;;0.40;0.40;;;;;;;4.11;98.67;100043.03;5047074;28;20081;-62
2023/03/29 10:33:00;;;;;;;0.50;0.50;;;;;;;4.16;98.76;100051.69;5047172;28;20025;-61
2023/03/29 10:35:38;;;;;;;0.43;0.43;;;;;;;4.17;98.79;100049.13;5047022;28;20028;-61
2023/03/29 10:38:09;;;;;;;0.50;0.50;;;;;;;4.18;98.68;100053.44;5047133;28;20025;-61
2023/03/29 10:40:40;;;;;;;0.50;0.50;;;;;;;4.18;98.67;100056.00;5046614;28;20371;-61
2023/03/29 10:43:19;;;;;;;0.50;0.50;;;;;;;4.16;98.39;100055.13;5045864;28;20033;-61
2023/03/29 10:45:50;;;;;;;0.50;0.50;;;;;;;4.13;98.25;100060.22;5046716;28;20040;-61
2023/03/29 10:48:18;;;;;;;0.50;0.50;;;;;;;4.08;98.30;100059.28;5045508;28;20049;-61
2023/03/29 10:50:51;;;;;;;0.45;0.45;;;;;;;4.07;98.39;100058.41;5046573;28;20033;-61
2023/03/29 10:53:27;;;;;;;0.40;0.40;;;;;;;4.02;98.37;100056.66;5046712;28;20021;-61
2023/03/29 10:56:17;;;;;;;0.47;0.47;;;;;;;3.99;98.34;100056.59;5046804;28;20021;-61
2023/03/29 10:59:10;;;;;;;0.40;0.40;;;;;;;3.99;98.66;100059.19;5043992;28;20025;-62
2023/03/29 11:02:13;;;;;;;0.45;0.45;;;;;;;3.98;98.60;100060.88;5045356;28;20036;-62
2023/03/29 11:05:24;;;;;;;0.50;0.50;;;;;;;3.97;98.48;100056.59;5045646;28;20037;-62
2023/03/29 11:07:52;;;;;;;0.50;0.50;;;;;;;4.05;99.03;100052.41;5043838;28;20064;-62
2023/03/29 11:10:39;;;;;;;0.50;0.50;;;;;;;4.19;99.50;100062.00;5041348;28;20445;-61
2023/03/29 11:13:04;;;;;;;0.50;0.50;;;;;;;4.27;99.30;100055.25;5044069;28;20029;-61
2023/03/29 11:15:58;;;;;;;0.50;0.50;;;;;;;4.37;99.39;100052.78;5043044;28;20201;-61
2023/03/29 11:18:32;;;;;;;0.50;0.50;;;;;;;4.41;99.22;100057.97;5043765;28;20061;-62
2023/03/29 11:21:16;;;;;;;0.50;0.50;;;;;;;4.44;99.37;100052.84;5043823;28;20040;-62
2023/03/29 11:24:00;;;;;;;0.50;0.50;;;;;;;4.44;99.15;100052.84;5043918;28;20021;-61
2023/03/29 11:26:41;;;;;;;0.40;0.40;;;;;;;4.47;99.10;100059.75;5043756;28;20029;-61
2023/03/29 11:29:19;;;;;;;0.40;0.40;;;;;;;4.46;98.80;100058.88;5043367;28;20090;-61
2023/03/29 11:32:04;;;;;;;0.50;0.50;;;;;;;4.46;98.79;100051.19;5043411;28;20107;-61
2023/03/29 11:34:32;;;;;;;0.40;0.40;;;;;;;4.54;99.05;100050.38;5043648;28;20104;-60
2023/03/29 11:37:21;;;;;;;0.50;0.50;;;;;;;4.48;98.97;100038.34;5043606;28;20036;-60
2023/03/29 11:39:53;;;;;;;0.43;0.43;;;;;;;4.52;99.07;100046.94;5045675;28;20071;-60
2023/03/29 11:42:33;;;;;;;0.50;0.50;;;;;;;4.57;99.24;100052.97;5045989;28;20035;-60
2023/03/29 11:45:03;;;;;;;0.50;0.50;;;;;;;4.63;99.38;100041.91;5045763;28;20083;-60
2023/03/29 11:47:36;;;;;;;0.50;0.50;;;;;;;4.66;99.47;100042.81;5045529;28;20032;-60